Hopeton, OK (73746)

12:46 PM CST on December 03, 2016 (GMT -0600)
Alva Regional | | Change Station

Elev 1473 ft 36.77 °N, 98.67 °W | Updated 11 minutes ago

Overcast
Overcast
41 °F
Feels Like 39 °F
N
4
Wind Variable Wind from SE

Today
High -- | Low -- °F
--% Chance of Precip.
Yesterday
High -- | Low -- °F
Precip. -- in
Pressure 30.16 in
Visibility 10.0 miles
Clouds Few 3400 ft
Mostly Cloudy 4100 ft
Overcast 4700 ft
Windchill 39 °F
Dew Point 39 °F
Humidity 93%
Rainfall 0.01 in
Snow Depth Not available.
7:30 AM 5:18 PM
Waxing Crescent, 16% visible
METAR KAVK 031835Z AUTO 14003KT 10SM FEW034 BKN041 OVC047 05/04 A3016 RMK AO2
Pressure 30.16 in
Visibility 10.0 miles
Clouds Few 3400 ft
Mostly Cloudy 4100 ft
Overcast 4700 ft
Windchill 39 °F
Dew Point 39 °F
Humidity 93%
Rainfall 0.01 in
Snow Depth Not available.
7:30 AM 5:18 PM
Waxing Crescent, 16% visible
METAR KAVK 031835Z AUTO 14003KT 10SM FEW034 BKN041 OVC047 05/04 A3016 RMK AO2

10-Day Weather Forecast

Almanac

Astronomy

Dec. 03, 2016 Rise Set
Actual Time
Civil Twilight
Nautical Twilight
Astronomical Twilight
Moon
Length of Visible Light
Length of Day
Tomorrow will be .
, % of the Moon is Illuminated

Today's Extremes

State Highs State Lows

Community

WunderPhotos

Upload Photos

1,955,469 photos uploaded!

WunderBlog® & News

Nearby

Air Quality

  Air Quality AQ Index Pollutant
Not available.

Snow Depth

Station Depth Elevation

Earthquake Activity

City Distance Mag. Time & Date
Minimum magnitude displayed is 2.5.

Coastal Water Temperatures

Place Temperature

Stations

Nearby Weather Stations

Station Location Temp. Windchill Dew Point Humidity Wind Precip. Elev Updated Type
                   

Watches & Warnings

There are currently no watches in effect.